createdAt,value
2023-09-22T00:01:49.461Z,21.70
2023-09-22T00:04:18.072Z,21.70
2023-09-22T00:06:46.440Z,21.60
2023-09-22T00:09:15.096Z,21.60
2023-09-22T00:11:44.783Z,21.60
2023-09-22T00:14:13.473Z,21.50
2023-09-22T00:16:42.211Z,21.50
2023-09-22T00:19:11.493Z,21.40
2023-09-22T00:21:39.897Z,21.40
2023-09-22T00:24:09.237Z,21.30
2023-09-22T00:26:37.741Z,21.30
2023-09-22T00:29:08.251Z,21.20
2023-09-22T00:31:36.673Z,21.20
2023-09-22T00:34:05.332Z,21.20
2023-09-22T00:36:35.188Z,21.10
2023-09-22T00:39:05.268Z,21.10
2023-09-22T00:41:33.613Z,21.00
2023-09-22T00:44:02.295Z,21.00
2023-09-22T00:46:32.204Z,21.00
2023-09-22T00:49:03.622Z,20.90
2023-09-22T00:51:32.148Z,20.90
2023-09-22T00:54:01.712Z,20.90
2023-09-22T00:56:31.133Z,20.90
2023-09-22T00:59:00.029Z,20.80
2023-09-22T01:01:28.258Z,20.80
2023-09-22T01:03:58.347Z,20.80
2023-09-22T01:06:27.063Z,20.80
2023-09-22T01:08:55.721Z,20.70
2023-09-22T01:11:24.416Z,20.70
2023-09-22T01:13:53.070Z,20.70
2023-09-22T01:16:21.528Z,20.70
2023-09-22T01:18:50.219Z,20.70
2023-09-22T01:21:20.201Z,20.60
2023-09-22T01:23:50.822Z,20.60
2023-09-22T01:26:19.504Z,20.60
2023-09-22T01:28:48.110Z,20.60
2023-09-22T01:31:16.951Z,20.60
2023-09-22T01:33:47.317Z,20.50
2023-09-22T01:36:16.009Z,20.60
2023-09-22T01:38:45.106Z,20.50
2023-09-22T01:41:15.141Z,20.50
2023-09-22T01:43:43.914Z,20.50
2023-09-22T01:46:12.465Z,20.50
2023-09-22T01:48:41.099Z,20.50
2023-09-22T01:51:09.526Z,20.40
2023-09-22T01:53:38.114Z,20.40
2023-09-22T01:56:07.870Z,20.40
2023-09-22T01:58:37.961Z,20.40
2023-09-22T02:01:06.615Z,20.40
2023-09-22T02:03:35.829Z,20.30
2023-09-22T02:06:05.557Z,20.30
2023-09-22T02:08:34.372Z,20.30
2023-09-22T02:11:02.703Z,20.30
2023-09-22T02:13:31.329Z,20.30
2023-09-22T02:16:02.040Z,20.30
2023-09-22T02:18:31.115Z,20.20
2023-09-22T02:20:59.330Z,20.20
2023-09-22T02:23:29.120Z,20.20
2023-09-22T02:25:57.416Z,20.20
2023-09-22T02:28:25.982Z,20.20
2023-09-22T02:30:54.333Z,20.20
2023-09-22T02:33:24.415Z,20.10
2023-09-22T02:35:52.857Z,20.10
2023-09-22T02:38:21.854Z,20.10
2023-09-22T02:40:50.213Z,20.10
2023-09-22T02:43:18.915Z,20.00
2023-09-22T02:45:47.540Z,20.00
2023-09-22T02:48:16.661Z,20.00
2023-09-22T02:50:47.866Z,20.00
2023-09-22T02:53:16.523Z,19.90
2023-09-22T02:55:44.883Z,19.90
2023-09-22T02:58:14.134Z,19.90
2023-09-22T03:00:45.497Z,19.90
2023-09-22T03:03:14.977Z,19.90
2023-09-22T03:05:43.801Z,19.90
2023-09-22T03:08:14.324Z,19.90
2023-09-22T03:10:42.705Z,19.80
2023-09-22T03:13:11.887Z,19.80
2023-09-22T03:15:40.355Z,19.80
2023-09-22T03:18:09.840Z,19.90
2023-09-22T03:20:38.166Z,19.80
2023-09-22T03:23:06.918Z,19.80
2023-09-22T03:25:36.946Z,19.80
2023-09-22T03:28:06.293Z,19.80
2023-09-22T03:30:34.920Z,19.70
2023-09-22T03:33:03.657Z,19.80
2023-09-22T03:35:32.577Z,19.70
2023-09-22T03:38:01.058Z,19.70
2023-09-22T03:40:34.049Z,19.70
2023-09-22T03:43:04.982Z,19.70
2023-09-22T03:45:34.087Z,19.70
2023-09-22T03:48:02.658Z,19.70
2023-09-22T03:50:31.283Z,19.70
2023-09-22T03:53:00.150Z,19.70
2023-09-22T03:55:28.449Z,19.70
2023-09-22T03:57:57.103Z,19.70
2023-09-22T04:00:29.786Z,19.70
2023-09-22T04:02:59.273Z,19.60
2023-09-22T04:05:28.445Z,19.60
2023-09-22T04:07:58.252Z,19.60
2023-09-22T04:10:26.763Z,19.60
2023-09-22T04:12:55.565Z,19.50
2023-09-22T04:15:24.580Z,19.50
2023-09-22T04:17:54.722Z,19.50
2023-09-22T04:20:30.286Z,19.50
2023-09-22T04:22:59.874Z,19.40
2023-09-22T04:25:35.753Z,19.40
2023-09-22T04:28:11.131Z,19.40
2023-09-22T04:30:40.836Z,19.40
2023-09-22T04:33:11.856Z,19.40
2023-09-22T04:35:42.126Z,19.40
2023-09-22T04:38:12.102Z,19.40
2023-09-22T04:40:40.987Z,19.40
2023-09-22T04:43:09.929Z,19.30
2023-09-22T04:45:39.239Z,19.40
2023-09-22T04:48:08.669Z,19.40
2023-09-22T04:50:39.441Z,19.40
2023-09-22T04:53:09.052Z,19.40
2023-09-22T04:55:38.507Z,19.40
2023-09-22T04:58:09.126Z,19.40
2023-09-22T05:00:37.963Z,19.50
2023-09-22T05:03:08.418Z,19.50
2023-09-22T05:05:38.940Z,19.50
2023-09-22T05:08:08.869Z,19.60
2023-09-22T05:10:37.244Z,19.60
2023-09-22T05:13:06.342Z,19.70
2023-09-22T05:15:34.914Z,19.70
2023-09-22T05:18:06.062Z,19.80
2023-09-22T05:20:34.369Z,19.80
2023-09-22T05:23:05.047Z,19.90
2023-09-22T05:25:33.665Z,20.00
2023-09-22T05:28:02.660Z,20.00
2023-09-22T05:30:32.648Z,20.10
2023-09-22T05:33:01.450Z,20.20
2023-09-22T05:35:29.763Z,20.30
2023-09-22T05:37:58.995Z,20.30
2023-09-22T05:40:28.752Z,20.40
2023-09-22T05:42:57.408Z,20.50
2023-09-22T05:45:25.783Z,20.60
2023-09-22T05:47:54.786Z,20.80
2023-09-22T05:50:24.326Z,20.90
2023-09-22T05:52:53.110Z,21.10
2023-09-22T05:55:21.599Z,21.30
2023-09-22T05:57:52.508Z,21.60
2023-09-22T06:00:20.882Z,21.90
2023-09-22T06:02:51.621Z,22.20
2023-09-22T06:05:20.040Z,22.60
2023-09-22T06:07:48.701Z,22.90
2023-09-22T06:10:17.499Z,23.20
2023-09-22T06:12:48.845Z,23.50
2023-09-22T06:15:18.556Z,23.80
2023-09-22T06:17:49.773Z,24.10
2023-09-22T06:20:18.427Z,24.40
2023-09-22T06:22:50.710Z,24.70
2023-09-22T06:25:20.069Z,24.90
2023-09-22T06:27:53.340Z,25.10
2023-09-22T06:30:24.376Z,25.30
2023-09-22T06:32:53.143Z,25.50
2023-09-22T06:35:21.523Z,25.80
2023-09-22T06:37:50.552Z,25.90
2023-09-22T06:40:19.178Z,26.00
2023-09-22T06:42:47.787Z,26.20
2023-09-22T06:45:17.546Z,26.30
2023-09-22T06:47:48.110Z,26.50
2023-09-22T06:50:16.697Z,26.50
2023-09-22T06:52:45.525Z,26.60
2023-09-22T06:55:16.338Z,26.70
2023-09-22T06:57:45.389Z,26.80
2023-09-22T07:00:20.409Z,26.90
2023-09-22T07:02:51.319Z,27.10
2023-09-22T07:05:21.673Z,27.30
2023-09-22T07:07:53.711Z,27.40
2023-09-22T07:10:24.857Z,27.60
2023-09-22T07:12:53.789Z,27.90
2023-09-22T07:15:24.324Z,28.10
2023-09-22T07:17:54.445Z,28.40
2023-09-22T07:20:23.237Z,28.70
2023-09-22T07:22:51.853Z,29.00
2023-09-22T07:25:23.329Z,29.20
2023-09-22T07:27:55.160Z,29.30
2023-09-22T07:30:23.564Z,29.30
2023-09-22T07:32:52.448Z,29.30
2023-09-22T07:35:22.403Z,29.20
2023-09-22T07:37:50.920Z,28.90
2023-09-22T07:40:19.310Z,28.60
2023-09-22T07:42:48.218Z,28.20
2023-09-22T07:45:16.918Z,27.80
2023-09-22T07:47:45.442Z,27.40
2023-09-22T07:50:14.033Z,27.30
2023-09-22T07:52:44.798Z,27.40
2023-09-22T07:55:15.724Z,27.40
2023-09-22T07:57:48.480Z,27.50
2023-09-22T08:00:19.767Z,27.40
2023-09-22T08:02:48.694Z,27.30
2023-09-22T08:05:17.321Z,27.30
2023-09-22T08:07:47.710Z,27.30
2023-09-22T08:10:16.312Z,27.30
2023-09-22T08:12:45.539Z,27.30
2023-09-22T08:15:15.929Z,27.40
2023-09-22T08:17:48.252Z,27.60
2023-09-22T08:20:16.749Z,27.80
2023-09-22T08:22:47.387Z,28.10
2023-09-22T08:25:17.542Z,28.30
2023-09-22T08:27:49.270Z,28.60
2023-09-22T08:30:18.086Z,28.90
2023-09-22T08:32:47.332Z,29.00
2023-09-22T08:35:17.289Z,29.20
2023-09-22T08:37:46.505Z,29.30
2023-09-22T08:40:18.969Z,29.50
2023-09-22T08:42:52.552Z,29.50
2023-09-22T08:45:21.672Z,29.60
2023-09-22T08:47:53.350Z,29.70
2023-09-22T08:50:22.372Z,29.70
2023-09-22T08:52:52.465Z,29.70
2023-09-22T08:55:24.945Z,29.80
2023-09-22T08:57:55.002Z,29.90
2023-09-22T09:00:27.809Z,30.00
2023-09-22T09:03:01.407Z,30.00
2023-09-22T09:05:32.152Z,30.10
2023-09-22T09:08:13.434Z,30.10
2023-09-22T09:10:45.917Z,30.10
2023-09-22T09:13:16.829Z,30.20
2023-09-22T09:15:46.717Z,30.10
2023-09-22T09:18:17.934Z,30.20
2023-09-22T09:20:48.695Z,30.20
2023-09-22T09:23:19.436Z,30.10
2023-09-22T09:25:51.360Z,30.10
2023-09-22T09:28:20.925Z,30.10
2023-09-22T09:30:52.603Z,30.10
2023-09-22T09:33:22.954Z,30.10
2023-09-22T09:35:52.327Z,30.10
2023-09-22T09:38:22.689Z,30.20
2023-09-22T09:40:53.634Z,30.10
2023-09-22T09:43:23.043Z,30.10
2023-09-22T09:45:53.764Z,30.10
2023-09-22T09:48:22.713Z,30.10
2023-09-22T09:50:55.782Z,30.10
2023-09-22T09:53:43.615Z,30.10
2023-09-22T09:56:16.492Z,30.00
2023-09-22T09:58:46.914Z,30.00
2023-09-22T10:01:17.887Z,29.90
2023-09-22T10:03:48.646Z,29.90
2023-09-22T10:06:18.947Z,29.90
2023-09-22T10:08:47.721Z,30.00
2023-09-22T10:11:17.624Z,30.00
2023-09-22T10:13:46.383Z,30.00
2023-09-22T10:16:29.622Z,30.00
2023-09-22T10:19:00.656Z,29.90
2023-09-22T10:21:52.965Z,29.70
2023-09-22T10:24:24.448Z,29.50
2023-09-22T10:27:15.215Z,29.40
2023-09-22T10:29:47.108Z,29.20
2023-09-22T10:32:28.053Z,29.20
2023-09-22T10:34:59.702Z,29.10
2023-09-22T10:37:29.398Z,29.10
2023-09-22T10:39:59.956Z,29.10
2023-09-22T10:42:29.797Z,29.10
2023-09-22T10:45:00.512Z,29.00
2023-09-22T10:47:41.437Z,29.00
2023-09-22T10:50:18.659Z,29.00
2023-09-22T10:52:55.478Z,28.90
2023-09-22T10:55:33.137Z,28.90
2023-09-22T10:58:05.549Z,28.90
2023-09-22T11:00:36.946Z,28.90
2023-09-22T11:03:07.298Z,28.90
2023-09-22T11:05:36.459Z,28.80
2023-09-22T11:08:14.422Z,28.70
2023-09-22T11:10:44.632Z,28.70
2023-09-22T11:13:16.030Z,28.60
2023-09-22T11:15:49.814Z,28.50
2023-09-22T11:18:25.489Z,28.40
2023-09-22T11:20:58.618Z,28.40
2023-09-22T11:23:28.112Z,28.20
2023-09-22T11:26:00.934Z,28.10
2023-09-22T11:28:33.141Z,28.00
2023-09-22T11:31:10.075Z,28.00
2023-09-22T11:33:38.948Z,28.00
2023-09-22T11:36:08.373Z,27.90
2023-09-22T11:38:41.108Z,27.90
2023-09-22T11:41:12.128Z,27.90
2023-09-22T11:43:43.513Z,27.90
2023-09-22T11:46:15.150Z,27.90
2023-09-22T11:49:00.605Z,28.00
2023-09-22T11:51:48.254Z,28.20
2023-09-22T11:54:19.099Z,28.30
2023-09-22T11:56:48.845Z,28.40
2023-09-22T11:59:20.653Z,28.50
2023-09-22T12:01:50.591Z,28.70
2023-09-22T12:04:20.511Z,28.80
2023-09-22T12:06:50.256Z,28.80
2023-09-22T12:09:19.052Z,28.80
2023-09-22T12:11:49.436Z,28.80
2023-09-22T12:14:19.629Z,28.80
2023-09-22T12:16:49.175Z,28.90
2023-09-22T12:19:18.217Z,28.90
2023-09-22T12:21:47.771Z,28.90
2023-09-22T12:24:16.341Z,28.80
2023-09-22T12:26:44.960Z,28.60
2023-09-22T12:29:15.201Z,28.50
2023-09-22T12:31:49.472Z,28.40
2023-09-22T12:34:18.826Z,28.30
2023-09-22T12:36:49.119Z,28.20
2023-09-22T12:39:19.409Z,28.10
2023-09-22T12:41:48.208Z,28.10
2023-09-22T12:44:16.584Z,28.10
2023-09-22T12:46:46.473Z,28.10
2023-09-22T12:49:14.908Z,28.20
2023-09-22T12:51:43.716Z,28.10
2023-09-22T12:54:12.028Z,28.00
2023-09-22T12:56:40.620Z,27.90
2023-09-22T12:59:10.151Z,27.70
2023-09-22T13:01:42.265Z,27.60
2023-09-22T13:04:12.336Z,27.50
2023-09-22T13:06:43.619Z,27.40
2023-09-22T13:09:12.159Z,27.30
2023-09-22T13:11:40.885Z,27.30
2023-09-22T13:14:09.935Z,27.20
2023-09-22T13:16:39.417Z,27.20
2023-09-22T13:19:08.115Z,27.20
2023-09-22T13:21:38.278Z,27.20
2023-09-22T13:24:07.658Z,27.20
2023-09-22T13:26:36.432Z,27.20
2023-09-22T13:29:05.666Z,27.10
2023-09-22T13:31:34.270Z,27.10
2023-09-22T13:34:03.499Z,27.00
2023-09-22T13:36:33.376Z,27.00
2023-09-22T13:39:04.803Z,26.90
2023-09-22T13:41:33.535Z,26.80
2023-09-22T13:44:01.863Z,26.70
2023-09-22T13:46:31.011Z,26.60
2023-09-22T13:48:59.361Z,26.50
2023-09-22T13:51:32.803Z,26.40
2023-09-22T13:54:02.536Z,26.30
2023-09-22T13:56:31.097Z,26.20
2023-09-22T13:58:59.526Z,26.10
2023-09-22T14:01:28.304Z,26.00
2023-09-22T14:03:58.547Z,26.00
2023-09-22T14:06:27.885Z,25.90
2023-09-22T14:08:59.288Z,25.90
2023-09-22T14:11:29.906Z,25.80
2023-09-22T14:13:58.385Z,25.80
2023-09-22T14:16:29.675Z,25.70
2023-09-22T14:18:58.241Z,25.60
2023-09-22T14:21:27.094Z,25.50
2023-09-22T14:23:55.460Z,25.50
2023-09-22T14:26:24.457Z,25.40
2023-09-22T14:28:54.256Z,25.30
2023-09-22T14:31:23.119Z,25.20
2023-09-22T14:33:52.874Z,25.20
2023-09-22T14:36:23.406Z,25.10
2023-09-22T14:38:51.672Z,25.10
2023-09-22T14:41:20.375Z,25.10
2023-09-22T14:43:48.795Z,25.10
2023-09-22T14:46:19.871Z,25.10
2023-09-22T14:48:48.909Z,25.20
2023-09-22T14:51:21.704Z,25.20
2023-09-22T14:53:51.002Z,25.20
2023-09-22T14:56:20.791Z,25.20
2023-09-22T14:58:49.525Z,25.20
2023-09-22T15:01:19.714Z,25.20
2023-09-22T15:03:48.916Z,25.30
2023-09-22T15:06:20.674Z,25.30
2023-09-22T15:08:49.162Z,25.30
2023-09-22T15:11:17.812Z,25.30
2023-09-22T15:13:46.231Z,25.30
2023-09-22T15:16:15.572Z,25.20
2023-09-22T15:18:45.348Z,25.20
2023-09-22T15:21:14.003Z,25.20
2023-09-22T15:23:44.513Z,25.10
2023-09-22T15:26:13.368Z,25.10
2023-09-22T15:28:42.170Z,25.00
2023-09-22T15:31:11.870Z,25.00
2023-09-22T15:33:40.302Z,24.90
2023-09-22T15:36:10.227Z,24.90
2023-09-22T15:38:39.436Z,24.80
2023-09-22T15:41:09.153Z,24.70
2023-09-22T15:43:38.089Z,24.70
2023-09-22T15:46:07.898Z,24.50
2023-09-22T15:48:36.505Z,24.40
2023-09-22T15:51:05.612Z,24.30
2023-09-22T15:53:38.128Z,24.10
2023-09-22T15:56:10.713Z,24.00
2023-09-22T15:58:39.495Z,23.90
2023-09-22T16:01:08.207Z,23.80
2023-09-22T16:03:37.230Z,23.70
2023-09-22T16:06:07.638Z,23.60
2023-09-22T16:08:38.445Z,23.50
2023-09-22T16:11:10.185Z,23.40
2023-09-22T16:13:40.168Z,23.30
2023-09-22T16:16:09.423Z,23.20
2023-09-22T16:18:37.927Z,23.10
2023-09-22T16:21:07.126Z,23.10
2023-09-22T16:23:37.236Z,23.00
2023-09-22T16:26:07.723Z,22.90
2023-09-22T16:28:36.948Z,22.90
2023-09-22T16:31:07.158Z,22.80
2023-09-22T16:33:37.128Z,22.80
2023-09-22T16:36:08.199Z,22.70
2023-09-22T16:38:38.591Z,22.60
2023-09-22T16:41:09.762Z,22.60
2023-09-22T16:43:41.619Z,22.50
2023-09-22T16:46:10.781Z,22.50
2023-09-22T16:48:41.791Z,22.60
2023-09-22T16:51:10.631Z,22.60
2023-09-22T16:53:40.308Z,22.60
2023-09-22T16:56:11.802Z,22.60
2023-09-22T16:58:44.012Z,22.70
2023-09-22T17:01:13.002Z,22.70
2023-09-22T17:03:41.664Z,22.70
2023-09-22T17:06:10.475Z,22.70
2023-09-22T17:08:40.106Z,22.70
2023-09-22T17:11:09.943Z,22.70
2023-09-22T17:13:38.631Z,22.70
2023-09-22T17:16:08.472Z,22.70
2023-09-22T17:18:37.027Z,22.60
2023-09-22T17:21:13.452Z,22.60
2023-09-22T17:23:43.693Z,22.60
2023-09-22T17:26:12.360Z,22.60
2023-09-22T17:28:41.623Z,22.60
2023-09-22T17:31:10.216Z,22.60
2023-09-22T17:33:38.663Z,22.60
2023-09-22T17:36:07.901Z,22.50
2023-09-22T17:38:36.224Z,22.40
2023-09-22T17:41:08.178Z,22.40
2023-09-22T17:43:36.991Z,22.30
2023-09-22T17:46:05.750Z,22.30
2023-09-22T17:48:36.974Z,22.20
2023-09-22T17:51:09.296Z,22.20
2023-09-22T17:53:37.942Z,22.20
2023-09-22T17:56:08.306Z,22.10
2023-09-22T17:58:36.778Z,22.10
2023-09-22T18:01:08.009Z,22.10
2023-09-22T18:03:36.449Z,22.00
2023-09-22T18:06:05.578Z,22.00
2023-09-22T18:08:34.194Z,22.00
2023-09-22T18:11:03.763Z,21.90
2023-09-22T18:13:33.777Z,21.90
2023-09-22T18:16:04.877Z,21.80
2023-09-22T18:18:34.304Z,21.80
2023-09-22T18:21:03.302Z,21.80
2023-09-22T18:23:32.409Z,21.80
2023-09-22T18:26:06.598Z,21.80
2023-09-22T18:28:37.752Z,21.70
2023-09-22T18:31:15.099Z,21.70
2023-09-22T18:33:44.494Z,21.70
2023-09-22T18:36:13.377Z,21.70
2023-09-22T18:38:41.920Z,21.60
2023-09-22T18:41:10.937Z,21.60
2023-09-22T18:43:40.872Z,21.60
2023-09-22T18:46:15.284Z,21.50
2023-09-22T18:48:44.697Z,21.50
2023-09-22T18:51:13.955Z,21.40
2023-09-22T18:53:43.074Z,21.40
2023-09-22T18:56:12.125Z,21.30
2023-09-22T18:58:42.090Z,21.30
2023-09-22T19:01:11.039Z,21.20
2023-09-22T19:03:39.580Z,21.20
2023-09-22T19:06:11.657Z,21.20
2023-09-22T19:08:41.013Z,21.10
2023-09-22T19:11:14.925Z,21.10
2023-09-22T19:13:44.837Z,21.00
2023-09-22T19:16:14.876Z,21.00
2023-09-22T19:18:44.883Z,21.00
2023-09-22T19:21:14.082Z,20.90
2023-09-22T19:23:44.240Z,20.90
2023-09-22T19:26:13.845Z,20.90
2023-09-22T19:28:44.545Z,20.80
2023-09-22T19:31:13.774Z,20.80
2023-09-22T19:33:42.555Z,20.80
2023-09-22T19:36:11.696Z,20.70
2023-09-22T19:38:40.162Z,20.70
2023-09-22T19:41:12.893Z,20.70
2023-09-22T19:43:41.385Z,20.70
2023-09-22T19:46:14.657Z,20.60
2023-09-22T19:48:43.144Z,20.60
2023-09-22T19:51:12.993Z,20.60
2023-09-22T19:53:42.462Z,20.50
2023-09-22T19:56:11.391Z,20.50
2023-09-22T19:58:40.183Z,20.40
2023-09-22T20:01:09.680Z,20.40
2023-09-22T20:03:40.213Z,20.40
2023-09-22T20:06:09.336Z,20.30
2023-09-22T20:08:37.848Z,20.30
2023-09-22T20:11:07.620Z,20.30
2023-09-22T20:13:36.341Z,20.30
2023-09-22T20:16:07.081Z,20.30
2023-09-22T20:18:35.752Z,20.20
2023-09-22T20:21:06.296Z,20.20
2023-09-22T20:23:35.182Z,20.20
2023-09-22T20:26:06.708Z,20.10
2023-09-22T20:28:35.986Z,20.10
2023-09-22T20:31:06.396Z,20.10
2023-09-22T20:33:35.377Z,20.00
2023-09-22T20:36:11.936Z,20.00
2023-09-22T20:38:43.306Z,20.00
2023-09-22T20:41:13.607Z,19.90
2023-09-22T20:43:43.526Z,19.80
2023-09-22T20:46:12.658Z,19.70
2023-09-22T20:48:41.461Z,19.70
2023-09-22T20:51:13.433Z,19.60
2023-09-22T20:53:45.320Z,19.60
2023-09-22T20:56:14.959Z,19.50
2023-09-22T20:58:45.291Z,19.50
2023-09-22T21:01:16.982Z,19.50
2023-09-22T21:03:46.175Z,19.50
2023-09-22T21:06:16.426Z,19.50
2023-09-22T21:08:46.103Z,19.40
2023-09-22T21:11:15.616Z,19.40
2023-09-22T21:13:43.946Z,19.40
2023-09-22T21:16:13.753Z,19.40
2023-09-22T21:18:42.748Z,19.30
2023-09-22T21:21:11.243Z,19.30
2023-09-22T21:23:40.860Z,19.30
2023-09-22T21:26:09.820Z,19.30
2023-09-22T21:28:38.987Z,19.30
2023-09-22T21:31:07.606Z,19.30
2023-09-22T21:33:36.049Z,19.30
2023-09-22T21:36:05.029Z,19.20
2023-09-22T21:38:33.469Z,19.20
2023-09-22T21:41:07.367Z,19.20
2023-09-22T21:43:35.949Z,19.20
2023-09-22T21:46:06.158Z,19.20
2023-09-22T21:48:35.183Z,19.10
2023-09-22T21:51:03.871Z,19.10
2023-09-22T21:53:32.407Z,19.10
2023-09-22T21:56:01.587Z,19.00
2023-09-22T21:58:31.286Z,19.10
2023-09-22T22:00:59.983Z,19.00
2023-09-22T22:03:29.203Z,19.00
2023-09-22T22:05:57.958Z,19.00
2023-09-22T22:08:28.143Z,19.00
2023-09-22T22:10:57.782Z,19.00
2023-09-22T22:13:28.585Z,19.00
2023-09-22T22:15:58.493Z,19.00
2023-09-22T22:18:27.352Z,18.90
2023-09-22T22:20:56.108Z,18.90
2023-09-22T22:23:24.436Z,18.90
2023-09-22T22:25:57.209Z,18.80
2023-09-22T22:28:26.509Z,18.80
2023-09-22T22:30:57.620Z,18.70
2023-09-22T22:33:27.496Z,18.70
2023-09-22T22:35:56.019Z,18.70
2023-09-22T22:38:24.404Z,18.70
2023-09-22T22:40:53.049Z,18.70
2023-09-22T22:43:21.803Z,18.70
2023-09-22T22:45:50.260Z,18.70
2023-09-22T22:48:18.643Z,18.70
2023-09-22T22:50:48.828Z,18.70
2023-09-22T22:53:18.056Z,18.70
2023-09-22T22:55:46.845Z,18.70
2023-09-22T22:58:20.723Z,18.70
2023-09-22T23:00:55.550Z,18.70
2023-09-22T23:03:25.863Z,18.70
2023-09-22T23:05:56.466Z,18.70
2023-09-22T23:08:24.833Z,18.70
2023-09-22T23:11:06.996Z,18.70
2023-09-22T23:13:37.848Z,18.70
2023-09-22T23:16:07.135Z,18.70
2023-09-22T23:18:37.101Z,18.60
2023-09-22T23:21:07.145Z,18.60
2023-09-22T23:23:35.376Z,18.60
2023-09-22T23:26:08.065Z,18.60
2023-09-22T23:28:43.316Z,18.60
2023-09-22T23:31:12.232Z,18.60
2023-09-22T23:33:41.000Z,18.50
2023-09-22T23:36:11.009Z,18.50
2023-09-22T23:38:39.274Z,18.50
2023-09-22T23:41:11.836Z,18.50
2023-09-22T23:43:40.451Z,18.50
2023-09-22T23:46:09.642Z,18.50
2023-09-22T23:48:39.228Z,18.40
2023-09-22T23:51:09.009Z,18.40
2023-09-22T23:53:40.389Z,18.40
2023-09-22T23:56:10.769Z,18.40
2023-09-22T23:58:43.179Z,18.40
